sensor_id;sensor_type;location;lat;lon;timestamp;pressure;altitude;pressure_sealevel;temperature;humidity
51083;BME280;37131;42.694;23.350;2023-05-25T00:00:24;95432.44;;;14.81;98.25
51083;BME280;37131;42.694;23.350;2023-05-25T00:02:49;95431.06;;;14.73;98.39
51083;BME280;37131;42.694;23.350;2023-05-25T00:05:18;95434.69;;;14.50;99.12
51083;BME280;37131;42.694;23.350;2023-05-25T00:07:44;95438.69;;;14.58;98.99
51083;BME280;37131;42.694;23.350;2023-05-25T00:10:10;95439.09;;;14.67;98.50
51083;BME280;37131;42.694;23.350;2023-05-25T00:12:35;95441.47;;;14.68;98.48
51083;BME280;37131;42.694;23.350;2023-05-25T00:15:01;95437.66;;;14.59;99.32
51083;BME280;37131;42.694;23.350;2023-05-25T00:17:27;95439.06;;;14.45;100.00
51083;BME280;37131;42.694;23.350;2023-05-25T00:19:53;95440.53;;;14.35;100.00
51083;BME280;37131;42.694;23.350;2023-05-25T00:22:21;95437.72;;;14.42;100.00
51083;BME280;37131;42.694;23.350;2023-05-25T00:24:47;95441.25;;;14.31;100.00
51083;BME280;37131;42.694;23.350;2023-05-25T00:27:12;95438.25;;;14.22;100.00
51083;BME280;37131;42.694;23.350;2023-05-25T00:29:37;95439.88;;;14.06;100.00
51083;BME280;37131;42.694;23.350;2023-05-25T00:32:03;95438.66;;;14.14;100.00
51083;BME280;37131;42.694;23.350;2023-05-25T00:34:28;95435.31;;;14.18;100.00
51083;BME280;37131;42.694;23.350;2023-05-25T00:36:53;95434.81;;;14.21;100.00
51083;BME280;37131;42.694;23.350;2023-05-25T00:39:19;95435.63;;;14.22;100.00
51083;BME280;37131;42.694;23.350;2023-05-25T00:41:45;95436.38;;;14.17;100.00
51083;BME280;37131;42.694;23.350;2023-05-25T00:44:11;95436.38;;;14.00;100.00
51083;BME280;37131;42.694;23.350;2023-05-25T00:46:39;95449.81;;;14.04;100.00
51083;BME280;37131;42.694;23.350;2023-05-25T00:49:06;95452.00;;;14.12;100.00
51083;BME280;37131;42.694;23.350;2023-05-25T00:51:31;95450.97;;;14.13;100.00
51083;BME280;37131;42.694;23.350;2023-05-25T00:54:00;95450.91;;;14.08;100.00
51083;BME280;37131;42.694;23.350;2023-05-25T00:56:28;95451.88;;;14.02;100.00
51083;BME280;37131;42.694;23.350;2023-05-25T00:58:54;95460.53;;;13.85;100.00
51083;BME280;37131;42.694;23.350;2023-05-25T01:01:21;95457.91;;;13.85;100.00
51083;BME280;37131;42.694;23.350;2023-05-25T01:03:47;95462.06;;;13.64;100.00
51083;BME280;37131;42.694;23.350;2023-05-25T01:06:17;95466.88;;;13.56;100.00
51083;BME280;37131;42.694;23.350;2023-05-25T01:08:46;95468.09;;;13.48;100.00
51083;BME280;37131;42.694;23.350;2023-05-25T01:11:13;95463.53;;;13.43;100.00
51083;BME280;37131;42.694;23.350;2023-05-25T01:13:39;95463.53;;;13.43;100.00
51083;BME280;37131;42.694;23.350;2023-05-25T01:16:05;95458.28;;;13.43;100.00
51083;BME280;37131;42.694;23.350;2023-05-25T01:18:31;95459.66;;;13.46;100.00
51083;BME280;37131;42.694;23.350;2023-05-25T01:23:24;95464.03;;;13.28;100.00
51083;BME280;37131;42.694;23.350;2023-05-25T01:25:50;95455.38;;;13.28;100.00
51083;BME280;37131;42.694;23.350;2023-05-25T01:28:22;95456.16;;;13.40;100.00
51083;BME280;37131;42.694;23.350;2023-05-25T01:30:49;95455.53;;;13.50;100.00
51083;BME280;37131;42.694;23.350;2023-05-25T01:33:15;95452.97;;;13.38;100.00
51083;BME280;37131;42.694;23.350;2023-05-25T01:35:42;95451.00;;;13.16;100.00
51083;BME280;37131;42.694;23.350;2023-05-25T01:38:08;95447.03;;;13.14;100.00
51083;BME280;37131;42.694;23.350;2023-05-25T01:40:33;95445.44;;;13.13;100.00
51083;BME280;37131;42.694;23.350;2023-05-25T01:42:58;95438.38;;;13.13;100.00
51083;BME280;37131;42.694;23.350;2023-05-25T01:45:24;95433.78;;;13.21;100.00
51083;BME280;37131;42.694;23.350;2023-05-25T01:50:33;95432.72;;;13.33;100.00
51083;BME280;37131;42.694;23.350;2023-05-25T01:55:26;95432.94;;;13.32;100.00
51083;BME280;37131;42.694;23.350;2023-05-25T01:57:54;95439.50;;;13.18;100.00
51083;BME280;37131;42.694;23.350;2023-05-25T02:00:22;95439.97;;;13.14;100.00
51083;BME280;37131;42.694;23.350;2023-05-25T02:02:49;95439.56;;;13.23;100.00
51083;BME280;37131;42.694;23.350;2023-05-25T02:05:15;95443.44;;;13.03;100.00
51083;BME280;37131;42.694;23.350;2023-05-25T02:07:42;95446.94;;;13.09;100.00
51083;BME280;37131;42.694;23.350;2023-05-25T02:10:08;95448.31;;;13.11;100.00
51083;BME280;37131;42.694;23.350;2023-05-25T02:12:33;95451.16;;;13.10;100.00
51083;BME280;37131;42.694;23.350;2023-05-25T02:14:58;95453.31;;;13.13;100.00
51083;BME280;37131;42.694;23.350;2023-05-25T02:17:24;95459.28;;;12.96;100.00
51083;BME280;37131;42.694;23.350;2023-05-25T02:19:51;95453.72;;;12.93;100.00
51083;BME280;37131;42.694;23.350;2023-05-25T02:22:18;95454.53;;;12.93;100.00
51083;BME280;37131;42.694;23.350;2023-05-25T02:24:43;95453.88;;;12.86;100.00
51083;BME280;37131;42.694;23.350;2023-05-25T02:27:10;95459.13;;;12.74;100.00
51083;BME280;37131;42.694;23.350;2023-05-25T02:29:36;95453.63;;;12.88;100.00
51083;BME280;37131;42.694;23.350;2023-05-25T02:32:02;95460.47;;;12.77;100.00
51083;BME280;37131;42.694;23.350;2023-05-25T02:34:27;95462.78;;;12.73;100.00
51083;BME280;37131;42.694;23.350;2023-05-25T02:36:52;95465.94;;;12.75;100.00
51083;BME280;37131;42.694;23.350;2023-05-25T02:39:17;95469.00;;;12.72;100.00
51083;BME280;37131;42.694;23.350;2023-05-25T02:41:43;95481.31;;;12.72;100.00
51083;BME280;37131;42.694;23.350;2023-05-25T02:44:08;95483.81;;;12.67;100.00
51083;BME280;37131;42.694;23.350;2023-05-25T02:46:33;95485.41;;;12.68;100.00
51083;BME280;37131;42.694;23.350;2023-05-25T02:48:58;95482.25;;;12.66;100.00
51083;BME280;37131;42.694;23.350;2023-05-25T02:51:24;95485.09;;;12.64;100.00
51083;BME280;37131;42.694;23.350;2023-05-25T02:53:50;95491.00;;;12.71;100.00
51083;BME280;37131;42.694;23.350;2023-05-25T02:56:15;95486.28;;;12.85;100.00
51083;BME280;37131;42.694;23.350;2023-05-25T02:58:41;95495.03;;;12.91;100.00
51083;BME280;37131;42.694;23.350;2023-05-25T03:01:06;95495.16;;;12.84;100.00
51083;BME280;37131;42.694;23.350;2023-05-25T03:03:34;95498.13;;;12.88;100.00
51083;BME280;37131;42.694;23.350;2023-05-25T03:05:59;95495.81;;;12.91;100.00
51083;BME280;37131;42.694;23.350;2023-05-25T03:08:24;95500.38;;;12.84;100.00
51083;BME280;37131;42.694;23.350;2023-05-25T03:10:50;95497.72;;;12.67;100.00
51083;BME280;37131;42.694;23.350;2023-05-25T03:13:15;95505.56;;;12.67;100.00
51083;BME280;37131;42.694;23.350;2023-05-25T03:15:40;95496.34;;;12.64;100.00
51083;BME280;37131;42.694;23.350;2023-05-25T03:18:06;95500.19;;;12.62;100.00
51083;BME280;37131;42.694;23.350;2023-05-25T03:20:31;95494.06;;;12.68;100.00
51083;BME280;37131;42.694;23.350;2023-05-25T03:22:59;95498.03;;;12.71;100.00
51083;BME280;37131;42.694;23.350;2023-05-25T03:25:24;95496.69;;;12.68;100.00
51083;BME280;37131;42.694;23.350;2023-05-25T03:27:53;95507.94;;;12.69;100.00
51083;BME280;37131;42.694;23.350;2023-05-25T03:30:19;95507.00;;;12.75;100.00
51083;BME280;37131;42.694;23.350;2023-05-25T03:32:44;95507.78;;;12.75;100.00
51083;BME280;37131;42.694;23.350;2023-05-25T03:35:09;95506.78;;;12.76;100.00
51083;BME280;37131;42.694;23.350;2023-05-25T03:37:35;95507.56;;;12.77;100.00
51083;BME280;37131;42.694;23.350;2023-05-25T03:40:00;95504.94;;;12.77;100.00
51083;BME280;37131;42.694;23.350;2023-05-25T03:42:26;95506.22;;;12.74;100.00
51083;BME280;37131;42.694;23.350;2023-05-25T03:44:52;95499.72;;;12.77;100.00
51083;BME280;37131;42.694;23.350;2023-05-25T03:47:17;95504.38;;;12.87;100.00
51083;BME280;37131;42.694;23.350;2023-05-25T03:49:42;95506.25;;;13.03;100.00
51083;BME280;37131;42.694;23.350;2023-05-25T03:52:08;95500.75;;;13.16;100.00
51083;BME280;37131;42.694;23.350;2023-05-25T03:54:33;95510.53;;;13.09;100.00
51083;BME280;37131;42.694;23.350;2023-05-25T03:56:58;95512.06;;;13.05;100.00
51083;BME280;37131;42.694;23.350;2023-05-25T03:59:24;95517.78;;;13.02;100.00
51083;BME280;37131;42.694;23.350;2023-05-25T04:01:50;95517.78;;;13.02;100.00
51083;BME280;37131;42.694;23.350;2023-05-25T04:04:15;95514.28;;;13.13;100.00
51083;BME280;37131;42.694;23.350;2023-05-25T04:06:40;95522.16;;;13.13;100.00
51083;BME280;37131;42.694;23.350;2023-05-25T04:09:09;95529.25;;;13.01;100.00
51083;BME280;37131;42.694;23.350;2023-05-25T04:11:35;95534.34;;;13.08;100.00
51083;BME280;37131;42.694;23.350;2023-05-25T04:14:00;95536.91;;;13.20;100.00
51083;BME280;37131;42.694;23.350;2023-05-25T04:16:26;95543.72;;;13.32;100.00
51083;BME280;37131;42.694;23.350;2023-05-25T04:18:51;95535.38;;;13.47;100.00
51083;BME280;37131;42.694;23.350;2023-05-25T04:21:16;95535.19;;;13.37;100.00
51083;BME280;37131;42.694;23.350;2023-05-25T04:23:41;95540.59;;;13.19;100.00
51083;BME280;37131;42.694;23.350;2023-05-25T04:26:07;95537.59;;;13.27;100.00
51083;BME280;37131;42.694;23.350;2023-05-25T04:28:34;95541.31;;;13.43;100.00
51083;BME280;37131;42.694;23.350;2023-05-25T04:30:59;95546.19;;;13.51;100.00
51083;BME280;37131;42.694;23.350;2023-05-25T04:33:25;95546.09;;;13.46;100.00
51083;BME280;37131;42.694;23.350;2023-05-25T04:35:53;95553.53;;;13.66;100.00
51083;BME280;37131;42.694;23.350;2023-05-25T04:38:19;95560.84;;;13.81;100.00
51083;BME280;37131;42.694;23.350;2023-05-25T04:40:44;95557.03;;;13.89;99.45
51083;BME280;37131;42.694;23.350;2023-05-25T04:43:12;95563.00;;;13.84;99.89
51083;BME280;37131;42.694;23.350;2023-05-25T04:45:42;95555.97;;;13.73;100.00
51083;BME280;37131;42.694;23.350;2023-05-25T04:48:07;95561.63;;;13.81;100.00
51083;BME280;37131;42.694;23.350;2023-05-25T04:50:33;95557.22;;;13.82;100.00
51083;BME280;37131;42.694;23.350;2023-05-25T04:52:58;95555.31;;;13.94;100.00
51083;BME280;37131;42.694;23.350;2023-05-25T04:55:24;95540.66;;;13.81;100.00
51083;BME280;37131;42.694;23.350;2023-05-25T04:57:49;95542.63;;;13.74;99.62
51083;BME280;37131;42.694;23.350;2023-05-25T05:00:17;95542.81;;;13.84;99.91
51083;BME280;37131;42.694;23.350;2023-05-25T05:02:42;95536.16;;;13.94;99.73
51083;BME280;37131;42.694;23.350;2023-05-25T05:05:08;95525.03;;;13.86;100.00
51083;BME280;37131;42.694;23.350;2023-05-25T05:07:33;95542.13;;;14.06;100.00
51083;BME280;37131;42.694;23.350;2023-05-25T05:09:58;95541.41;;;14.11;100.00
51083;BME280;37131;42.694;23.350;2023-05-25T05:12:24;95545.91;;;14.15;100.00
51083;BME280;37131;42.694;23.350;2023-05-25T05:14:49;95542.97;;;14.29;100.00
51083;BME280;37131;42.694;23.350;2023-05-25T05:17:14;95544.47;;;14.42;100.00
51083;BME280;37131;42.694;23.350;2023-05-25T05:19:41;95547.00;;;14.53;100.00
51083;BME280;37131;42.694;23.350;2023-05-25T05:22:06;95552.72;;;14.67;100.00
51083;BME280;37131;42.694;23.350;2023-05-25T05:24:33;95549.44;;;14.77;100.00
51083;BME280;37131;42.694;23.350;2023-05-25T05:26:58;95542.97;;;14.85;100.00
51083;BME280;37131;42.694;23.350;2023-05-25T05:29:24;95542.06;;;14.96;100.00
51083;BME280;37131;42.694;23.350;2023-05-25T05:31:50;95554.22;;;15.02;100.00
51083;BME280;37131;42.694;23.350;2023-05-25T05:34:16;95547.69;;;15.05;96.14
51083;BME280;37131;42.694;23.350;2023-05-25T05:36:41;95556.56;;;14.99;98.89
51083;BME280;37131;42.694;23.350;2023-05-25T05:39:06;95563.56;;;15.15;93.77
51083;BME280;37131;42.694;23.350;2023-05-25T05:41:31;95563.69;;;15.25;94.06
51083;BME280;37131;42.694;23.350;2023-05-25T05:43:57;95558.19;;;15.27;94.39
51083;BME280;37131;42.694;23.350;2023-05-25T05:46:22;95563.06;;;15.40;93.22
51083;BME280;37131;42.694;23.350;2023-05-25T05:48:47;95571.94;;;15.34;92.78
51083;BME280;37131;42.694;23.350;2023-05-25T05:51:13;95568.50;;;15.34;93.75
51083;BME280;37131;42.694;23.350;2023-05-25T05:53:38;95570.66;;;15.37;93.31
51083;BME280;37131;42.694;23.350;2023-05-25T05:56:03;95568.47;;;15.56;93.43
51083;BME280;37131;42.694;23.350;2023-05-25T05:58:29;95559.75;;;15.77;93.30
51083;BME280;37131;42.694;23.350;2023-05-25T06:00:56;95560.66;;;15.88;91.81
51083;BME280;37131;42.694;23.350;2023-05-25T06:03:23;95556.84;;;16.01;90.56
51083;BME280;37131;42.694;23.350;2023-05-25T06:05:49;95559.28;;;16.13;88.78
51083;BME280;37131;42.694;23.350;2023-05-25T06:08:14;95556.91;;;15.79;88.63
51083;BME280;37131;42.694;23.350;2023-05-25T06:10:39;95560.00;;;16.03;89.09
51083;BME280;37131;42.694;23.350;2023-05-25T06:13:06;95560.63;;;16.16;89.14
51083;BME280;37131;42.694;23.350;2023-05-25T06:15:31;95561.50;;;16.26;87.85
51083;BME280;37131;42.694;23.350;2023-05-25T06:17:57;95564.84;;;16.49;85.40
51083;BME280;37131;42.694;23.350;2023-05-25T06:20:22;95565.69;;;16.60;83.20
51083;BME280;37131;42.694;23.350;2023-05-25T06:22:47;95563.31;;;16.58;84.59
51083;BME280;37131;42.694;23.350;2023-05-25T06:25:13;95571.25;;;16.69;83.67
51083;BME280;37131;42.694;23.350;2023-05-25T06:27:38;95564.28;;;16.90;83.20
51083;BME280;37131;42.694;23.350;2023-05-25T06:30:03;95556.31;;;16.79;81.77
51083;BME280;37131;42.694;23.350;2023-05-25T06:32:29;95559.47;;;16.81;83.63
51083;BME280;37131;42.694;23.350;2023-05-25T06:34:54;95573.78;;;16.91;84.80
51083;BME280;37131;42.694;23.350;2023-05-25T06:37:19;95577.50;;;17.00;84.75
51083;BME280;37131;42.694;23.350;2023-05-25T06:39:45;95570.78;;;17.25;80.35
51083;BME280;37131;42.694;23.350;2023-05-25T06:42:11;95569.75;;;17.31;81.76
51083;BME280;37131;42.694;23.350;2023-05-25T06:44:36;95564.97;;;17.28;81.78
51083;BME280;37131;42.694;23.350;2023-05-25T06:47:02;95565.84;;;17.49;81.21
51083;BME280;37131;42.694;23.350;2023-05-25T06:49:27;95572.72;;;17.60;80.76
51083;BME280;37131;42.694;23.350;2023-05-25T06:51:53;95565.91;;;17.75;81.13
51083;BME280;37131;42.694;23.350;2023-05-25T06:54:18;95568.78;;;17.78;81.42
51083;BME280;37131;42.694;23.350;2023-05-25T06:56:43;95571.50;;;17.99;80.54
51083;BME280;37131;42.694;23.350;2023-05-25T06:59:09;95573.06;;;18.15;78.43
51083;BME280;37131;42.694;23.350;2023-05-25T07:01:35;95568.56;;;18.26;76.93
51083;BME280;37131;42.694;23.350;2023-05-25T07:04:00;95568.59;;;18.41;77.23
51083;BME280;37131;42.694;23.350;2023-05-25T07:06:25;95565.38;;;18.60;77.46
51083;BME280;37131;42.694;23.350;2023-05-25T07:08:51;95563.22;;;18.77;75.19
51083;BME280;37131;42.694;23.350;2023-05-25T07:11:16;95561.41;;;18.73;75.65
51083;BME280;37131;42.694;23.350;2023-05-25T07:13:44;95559.00;;;18.82;76.42
51083;BME280;37131;42.694;23.350;2023-05-25T07:16:09;95557.69;;;18.84;74.91
51083;BME280;37131;42.694;23.350;2023-05-25T07:18:37;95547.91;;;18.95;75.48
51083;BME280;37131;42.694;23.350;2023-05-25T07:21:02;95555.47;;;19.17;75.87
51083;BME280;37131;42.694;23.350;2023-05-25T07:23:28;95548.78;;;19.35;74.73
51083;BME280;37131;42.694;23.350;2023-05-25T07:25:53;95554.28;;;19.44;74.08
51083;BME280;37131;42.694;23.350;2023-05-25T07:28:18;95552.13;;;19.56;74.64
51083;BME280;37131;42.694;23.350;2023-05-25T07:30:43;95554.50;;;19.58;72.90
51083;BME280;37131;42.694;23.350;2023-05-25T07:33:09;95561.91;;;19.56;74.12
51083;BME280;37131;42.694;23.350;2023-05-25T07:35:34;95557.75;;;19.44;74.60
51083;BME280;37131;42.694;23.350;2023-05-25T07:38:00;95565.34;;;19.56;74.58
51083;BME280;37131;42.694;23.350;2023-05-25T07:40:26;95560.50;;;19.69;73.92
51083;BME280;37131;42.694;23.350;2023-05-25T07:42:52;95562.88;;;19.70;73.85
51083;BME280;37131;42.694;23.350;2023-05-25T07:45:17;95561.34;;;19.59;73.78
51083;BME280;37131;42.694;23.350;2023-05-25T07:47:43;95557.88;;;19.69;75.71
51083;BME280;37131;42.694;23.350;2023-05-25T07:50:08;95550.44;;;19.71;76.46
51083;BME280;37131;42.694;23.350;2023-05-25T07:52:34;95558.19;;;19.57;75.60
51083;BME280;37131;42.694;23.350;2023-05-25T07:54:59;95561.41;;;19.49;73.86
51083;BME280;37131;42.694;23.350;2023-05-25T07:57:24;95576.25;;;19.44;71.88
51083;BME280;37131;42.694;23.350;2023-05-25T07:59:50;95583.47;;;19.28;72.12
51083;BME280;37131;42.694;23.350;2023-05-25T08:02:15;95586.66;;;19.20;73.95
51083;BME280;37131;42.694;23.350;2023-05-25T08:04:40;95599.19;;;18.68;76.71
51083;BME280;37131;42.694;23.350;2023-05-25T08:07:06;95595.75;;;18.63;78.60
51083;BME280;37131;42.694;23.350;2023-05-25T08:09:31;95602.13;;;18.51;80.48
51083;BME280;37131;42.694;23.350;2023-05-25T08:11:56;95597.09;;;17.98;82.17
51083;BME280;37131;42.694;23.350;2023-05-25T08:14:21;95611.72;;;17.53;83.77
51083;BME280;37131;42.694;23.350;2023-05-25T08:16:48;95620.66;;;17.47;83.93
51083;BME280;37131;42.694;23.350;2023-05-25T08:19:13;95625.91;;;17.36;85.29
51083;BME280;37131;42.694;23.350;2023-05-25T08:21:38;95630.66;;;17.45;84.77
51083;BME280;37131;42.694;23.350;2023-05-25T08:24:04;95641.22;;;17.50;86.20
51083;BME280;37131;42.694;23.350;2023-05-25T08:26:30;95639.59;;;17.39;86.42
51083;BME280;37131;42.694;23.350;2023-05-25T08:28:56;95639.28;;;17.25;87.35
51083;BME280;37131;42.694;23.350;2023-05-25T08:31:21;95651.59;;;17.14;87.63
51083;BME280;37131;42.694;23.350;2023-05-25T08:33:46;95645.72;;;16.96;90.61
51083;BME280;37131;42.694;23.350;2023-05-25T08:36:11;95638.34;;;16.93;92.63
51083;BME280;37131;42.694;23.350;2023-05-25T08:38:37;95652.66;;;16.75;96.23
51083;BME280;37131;42.694;23.350;2023-05-25T08:41:05;95648.16;;;16.38;99.60
51083;BME280;37131;42.694;23.350;2023-05-25T08:43:31;95656.69;;;16.18;100.00
51083;BME280;37131;42.694;23.350;2023-05-25T08:45:58;95647.34;;;16.05;100.00
51083;BME280;37131;42.694;23.350;2023-05-25T08:48:23;95614.75;;;15.79;100.00
51083;BME280;37131;42.694;23.350;2023-05-25T08:50:51;95641.34;;;15.83;100.00
51083;BME280;37131;42.694;23.350;2023-05-25T08:53:17;95642.38;;;15.82;100.00
51083;BME280;37131;42.694;23.350;2023-05-25T08:55:42;95646.53;;;15.55;100.00
51083;BME280;37131;42.694;23.350;2023-05-25T08:58:10;95651.28;;;15.58;100.00
51083;BME280;37131;42.694;23.350;2023-05-25T09:00:39;95655.75;;;15.58;100.00
51083;BME280;37131;42.694;23.350;2023-05-25T09:03:10;95663.94;;;15.39;100.00
51083;BME280;37131;42.694;23.350;2023-05-25T09:05:37;95667.53;;;15.33;100.00
51083;BME280;37131;42.694;23.350;2023-05-25T09:08:03;95662.69;;;15.25;100.00
51083;BME280;37131;42.694;23.350;2023-05-25T09:10:32;95667.91;;;15.20;100.00
51083;BME280;37131;42.694;23.350;2023-05-25T09:12:58;95675.53;;;15.21;100.00
51083;BME280;37131;42.694;23.350;2023-05-25T09:15:23;95672.03;;;15.16;100.00
51083;BME280;37131;42.694;23.350;2023-05-25T09:17:49;95676.91;;;15.07;100.00
51083;BME280;37131;42.694;23.350;2023-05-25T09:20:14;95670.78;;;15.01;100.00
51083;BME280;37131;42.694;23.350;2023-05-25T09:22:40;95672.16;;;15.04;100.00
51083;BME280;37131;42.694;23.350;2023-05-25T09:25:06;95661.50;;;14.94;100.00
51083;BME280;37131;42.694;23.350;2023-05-25T09:27:35;95658.97;;;14.99;100.00
51083;BME280;37131;42.694;23.350;2023-05-25T09:30:03;95663.59;;;14.91;100.00
51083;BME280;37131;42.694;23.350;2023-05-25T09:32:29;95659.44;;;14.96;100.00
51083;BME280;37131;42.694;23.350;2023-05-25T09:34:54;95660.13;;;15.08;100.00
51083;BME280;37131;42.694;23.350;2023-05-25T09:37:22;95667.59;;;15.16;100.00
51083;BME280;37131;42.694;23.350;2023-05-25T09:39:49;95663.50;;;15.25;100.00
51083;BME280;37131;42.694;23.350;2023-05-25T09:42:15;95661.06;;;15.19;100.00
51083;BME280;37131;42.694;23.350;2023-05-25T09:44:40;95653.75;;;15.21;100.00
51083;BME280;37131;42.694;23.350;2023-05-25T09:47:07;95651.25;;;15.31;100.00
51083;BME280;37131;42.694;23.350;2023-05-25T09:49:33;95649.22;;;15.38;100.00
51083;BME280;37131;42.694;23.350;2023-05-25T09:51:59;95651.03;;;15.38;100.00
51083;BME280;37131;42.694;23.350;2023-05-25T09:54:24;95652.41;;;15.40;100.00
51083;BME280;37131;42.694;23.350;2023-05-25T09:56:50;95659.13;;;15.31;100.00
51083;BME280;37131;42.694;23.350;2023-05-25T09:59:16;95651.03;;;15.38;100.00
51083;BME280;37131;42.694;23.350;2023-05-25T10:01:41;95646.41;;;15.45;100.00
51083;BME280;37131;42.694;23.350;2023-05-25T10:04:08;95641.81;;;15.57;100.00
51083;BME280;37131;42.694;23.350;2023-05-25T10:06:33;95638.25;;;15.69;100.00
51083;BME280;37131;42.694;23.350;2023-05-25T10:08:59;95638.84;;;15.71;100.00
51083;BME280;37131;42.694;23.350;2023-05-25T10:11:24;95631.75;;;15.99;100.00
51083;BME280;37131;42.694;23.350;2023-05-25T10:13:52;95631.06;;;16.08;100.00
51083;BME280;37131;42.694;23.350;2023-05-25T10:16:17;95625.66;;;16.20;100.00
51083;BME280;37131;42.694;23.350;2023-05-25T10:18:46;95622.16;;;16.42;100.00
51083;BME280;37131;42.694;23.350;2023-05-25T10:21:12;95618.69;;;16.36;100.00
51083;BME280;37131;42.694;23.350;2023-05-25T10:23:46;95617.50;;;16.54;100.00
51083;BME280;37131;42.694;23.350;2023-05-25T10:26:17;95612.22;;;16.49;100.00
51083;BME280;37131;42.694;23.350;2023-05-25T10:28:43;95607.72;;;16.49;100.00
51083;BME280;37131;42.694;23.350;2023-05-25T10:31:08;95598.63;;;16.62;100.00
51083;BME280;37131;42.694;23.350;2023-05-25T10:33:34;95591.25;;;16.70;100.00
51083;BME280;37131;42.694;23.350;2023-05-25T10:36:01;95593.94;;;16.75;100.00
51083;BME280;37131;42.694;23.350;2023-05-25T10:38:27;95590.31;;;16.86;100.00
51083;BME280;37131;42.694;23.350;2023-05-25T10:40:55;95581.38;;;16.87;100.00
51083;BME280;37131;42.694;23.350;2023-05-25T10:43:22;95582.13;;;16.77;100.00
51083;BME280;37131;42.694;23.350;2023-05-25T10:45:47;95582.38;;;16.81;100.00
51083;BME280;37131;42.694;23.350;2023-05-25T10:48:14;95578.72;;;16.82;100.00
51083;BME280;37131;42.694;23.350;2023-05-25T10:50:39;95577.69;;;16.83;100.00
51083;BME280;37131;42.694;23.350;2023-05-25T10:53:05;95567.88;;;16.73;100.00
51083;BME280;37131;42.694;23.350;2023-05-25T10:55:40;95564.28;;;16.90;100.00
51083;BME280;37131;42.694;23.350;2023-05-25T10:58:13;95561.97;;;16.98;100.00
51083;BME280;37131;42.694;23.350;2023-05-25T11:00:39;95565.38;;;16.94;100.00
51083;BME280;37131;42.694;23.350;2023-05-25T11:03:04;95560.81;;;16.84;100.00
51083;BME280;37131;42.694;23.350;2023-05-25T11:05:36;95558.03;;;17.01;100.00
51083;BME280;37131;42.694;23.350;2023-05-25T11:08:06;95562.50;;;17.00;100.00
51083;BME280;37131;42.694;23.350;2023-05-25T11:15:47;95567.50;;;17.02;100.00
51083;BME280;37131;42.694;23.350;2023-05-25T11:18:15;95563.88;;;17.08;100.00
51083;BME280;37131;42.694;23.350;2023-05-25T11:20:41;95561.22;;;17.13;100.00
51083;BME280;37131;42.694;23.350;2023-05-25T11:23:21;95556.69;;;16.98;95.22
51083;BME280;37131;42.694;23.350;2023-05-25T11:25:47;95558.84;;;17.07;97.69
51083;BME280;37131;42.694;23.350;2023-05-25T11:28:12;95560.09;;;16.94;92.25
51083;BME280;37131;42.694;23.350;2023-05-25T11:30:39;95566.00;;;17.16;93.17
51083;BME280;37131;42.694;23.350;2023-05-25T11:33:04;95560.97;;;17.15;99.78
51083;BME280;37131;42.694;23.350;2023-05-25T11:35:31;95567.22;;;16.93;93.57
51083;BME280;37131;42.694;23.350;2023-05-25T11:38:06;95561.22;;;17.08;98.54
51083;BME280;37131;42.694;23.350;2023-05-25T11:40:31;95571.78;;;17.13;93.48
51083;BME280;37131;42.694;23.350;2023-05-25T11:42:57;95563.69;;;17.30;97.25
51083;BME280;37131;42.694;23.350;2023-05-25T11:45:26;95563.13;;;17.28;100.00
51083;BME280;37131;42.694;23.350;2023-05-25T11:47:52;95553.94;;;17.41;100.00
51083;BME280;37131;42.694;23.350;2023-05-25T11:50:17;95559.50;;;17.55;99.80
51083;BME280;37131;42.694;23.350;2023-05-25T11:52:42;95552.97;;;17.68;93.14
51083;BME280;37131;42.694;23.350;2023-05-25T11:55:09;95552.97;;;17.73;93.07
51083;BME280;37131;42.694;23.350;2023-05-25T11:57:35;95552.44;;;17.66;94.23
51083;BME280;37131;42.694;23.350;2023-05-25T12:00:00;95546.13;;;17.82;94.84
51083;BME280;37131;42.694;23.350;2023-05-25T12:02:35;95542.97;;;17.91;98.08
51083;BME280;37131;42.694;23.350;2023-05-25T12:05:01;95542.47;;;18.04;94.84
51083;BME280;37131;42.694;23.350;2023-05-25T12:07:26;95542.47;;;18.14;93.46
51083;BME280;37131;42.694;23.350;2023-05-25T12:10:07;95529.25;;;18.40;94.88
51083;BME280;37131;42.694;23.350;2023-05-25T12:12:46;95539.47;;;18.67;94.16
51083;BME280;37131;42.694;23.350;2023-05-25T12:15:12;95539.97;;;19.00;89.42
51083;BME280;37131;42.694;23.350;2023-05-25T12:17:41;95523.75;;;19.22;89.26
51083;BME280;37131;42.694;23.350;2023-05-25T12:20:07;95540.97;;;19.09;76.98
51083;BME280;37131;42.694;23.350;2023-05-25T12:22:32;95530.09;;;19.21;76.93
51083;BME280;37131;42.694;23.350;2023-05-25T12:24:58;95520.75;;;19.39;81.05
51083;BME280;37131;42.694;23.350;2023-05-25T12:27:24;95513.06;;;19.43;79.38
51083;BME280;37131;42.694;23.350;2023-05-25T12:29:50;95514.56;;;19.59;73.85
51083;BME280;37131;42.694;23.350;2023-05-25T12:32:16;95509.97;;;19.70;74.24
51083;BME280;37131;42.694;23.350;2023-05-25T12:34:42;95506.22;;;19.82;77.70
51083;BME280;37131;42.694;23.350;2023-05-25T12:37:20;95501.63;;;19.92;71.19
51083;BME280;37131;42.694;23.350;2023-05-25T12:39:45;95496.94;;;20.19;71.41
51083;BME280;37131;42.694;23.350;2023-05-25T12:42:11;95487.56;;;20.26;73.03
51083;BME280;37131;42.694;23.350;2023-05-25T12:44:38;95488.03;;;20.33;72.87
51083;BME280;37131;42.694;23.350;2023-05-25T12:47:13;95489.28;;;20.41;68.14
51083;BME280;37131;42.694;23.350;2023-05-25T12:49:39;95482.25;;;20.56;67.46